Cruz Bay, VI (00830)

6:10 PM AST on September 28, 2016 (GMT -0400)
Great Cruz Bay, St John | | Change Station

Elev 59 ft 18.33 °N, 64.79 °W | Updated 25 seconds ago

Scattered Clouds
Scattered Clouds
85.0 °F
Feels Like 96 °F
N
10.0
Wind Variable Wind from East
Gusts 13.0 mph

Today
High -- | Low -- °F
--% Chance of Precip.
Yesterday
High -- | Low -- °F
Precip. -- in
Pressure 29.97 in
Visibility 10.0 miles
Clouds Scattered Clouds 3000 ft
Heat Index 96 °F
Dew Point 77 °F
Humidity 78%
Rainfall 0.00 in
Snow Depth Not available.
6:09 AM 6:09 PM
Waning Crescent, 4% visible
METAR TIST 282153Z 07013G25KT 10SM SCT030 29/26 A2996 RMK AO2 PK WND 08027/2107 RAB10E21 SLP147 P0002 T02940261
Pressure 29.97 in
Visibility 10.0 miles
Clouds Scattered Clouds 3000 ft
Heat Index 96 °F
Dew Point 77 °F
Humidity 78%
Rainfall 0.00 in
Snow Depth Not available.
6:09 AM 6:09 PM
Waning Crescent, 4% visible
METAR TIST 282153Z 07013G25KT 10SM SCT030 29/26 A2996 RMK AO2 PK WND 08027/2107 RAB10E21 SLP147 P0002 T02940261

10-Day Weather Forecast

Almanac

Astronomy

Sep. 28, 2016 Rise Set
Actual Time
Civil Twilight
Nautical Twilight
Astronomical Twilight
Moon
Length of Visible Light
Length of Day
Tomorrow will be .
, % of the Moon is Illuminated

Today's Extremes

State Highs State Lows

Community

WunderPhotos

Upload Photos

1,942,335 photos uploaded!

WunderBlog® & News

Nearby

Air Quality

  Air Quality AQ Index Pollutant
Not available.

Snow Depth

Station Depth Elevation

Earthquake Activity

City Distance Mag. Time & Date
Minimum magnitude displayed is 2.5.

Coastal Water Temperatures

Place Temperature

Stations

Nearby Weather Stations

Station Location Temp. Windchill Dew Point Humidity Wind Precip. Elev Updated Type
                   

Watches & Warnings

There are currently no watches in effect.